Time,TemperatureF,DewpointF,PressureIn,WindDirection,WindDirectionDegrees,WindSpeedMPH,WindSpeedGustMPH,Humidity,HourlyPrecipIn,Conditions,Clouds,dailyrainin,SoftwareType,DateUTC
2013-04-15 00:03:00,42.1,35.4,29.64,West,259,0.0,0.0,77,0.00,,SKC,0.00,VWS V14.01,2013-04-15 05:03:00,
2013-04-15 00:08:00,42.3,34.6,29.64,WSW,241,0.0,0.0,74,0.00,,SKC,0.00,VWS V14.01,2013-04-15 05:08:00,
2013-04-15 00:13:00,42.4,34.4,29.64,WSW,237,0.0,0.0,73,0.00,,SKC,0.00,VWS V14.01,2013-04-15 05:13:00,
2013-04-15 00:18:00,42.3,34.2,29.64,SW,226,0.0,0.0,73,0.00,,SKC,0.00,VWS V14.01,2013-04-15 05:18:00,
2013-04-15 00:23:00,42.1,33.7,29.64,SW,233,0.0,0.0,72,0.00,,SKC,0.00,VWS V14.01,2013-04-15 05:23:00,
2013-04-15 00:28:00,41.9,33.5,29.64,SW,218,0.0,0.0,72,0.00,,SKC,0.00,VWS V14.01,2013-04-15 05:28:00,
2013-04-15 00:33:00,41.7,33.4,29.64,SW,234,0.0,0.0,72,0.00,,SKC,0.00,VWS V14.01,2013-04-15 05:33:00,
2013-04-15 00:38:00,41.7,33.0,29.64,West,262,0.0,0.0,71,0.00,,SKC,0.00,VWS V14.01,2013-04-15 05:38:00,
2013-04-15 00:43:00,41.5,32.5,29.64,West,270,0.0,0.0,70,0.00,,SKC,0.00,VWS V14.01,2013-04-15 05:43:00,
2013-04-15 00:48:00,41.4,31.6,29.64,West,270,0.0,0.0,68,0.00,,SKC,0.00,VWS V14.01,2013-04-15 05:48:00,
2013-04-15 00:53:00,41.2,31.4,29.64,West,270,0.0,0.0,68,0.00,,SKC,0.00,VWS V14.01,2013-04-15 05:53:00,
2013-04-15 00:58:00,40.3,30.9,29.64,West,270,0.0,0.0,69,0.00,,SKC,0.00,VWS V14.01,2013-04-15 05:58:00,
2013-04-15 01:03:00,39.7,30.4,29.64,West,270,0.0,0.0,69,0.00,,SKC,0.00,VWS V14.01,2013-04-15 06:03:00,
2013-04-15 01:08:00,39.4,30.4,29.61,West,270,0.0,0.0,70,0.00,,SKC,0.00,VWS V14.01,2013-04-15 06:08:00,
2013-04-15 01:13:00,38.8,30.3,29.61,West,270,0.0,0.0,71,0.00,,SKC,0.00,VWS V14.01,2013-04-15 06:13:00,
2013-04-15 01:18:00,38.5,29.9,29.61,WSW,246,0.0,0.0,71,0.00,,SKC,0.00,VWS V14.01,2013-04-15 06:18:00,
2013-04-15 01:23:00,38.5,30.6,29.64,WSW,248,0.0,0.0,73,0.00,,SKC,0.00,VWS V14.01,2013-04-15 06:23:00,
2013-04-15 01:28:00,38.7,31.1,29.64,SW,220,0.0,0.0,74,0.00,,SKC,0.00,VWS V14.01,2013-04-15 06:28:00,
2013-04-15 01:33:00,38.7,31.4,29.64,SW,222,0.0,0.0,75,0.00,,SKC,0.00,VWS V14.01,2013-04-15 06:33:00,
2013-04-15 01:38:00,38.5,31.3,29.64,SSW,209,0.0,0.0,75,0.00,,SKC,0.00,VWS V14.01,2013-04-15 06:38:00,
2013-04-15 01:43:00,38.3,30.8,29.64,SSW,206,0.0,0.0,74,0.00,,SKC,0.00,VWS V14.01,2013-04-15 06:43:00,
2013-04-15 01:48:00,38.3,30.4,29.64,WSW,244,0.0,0.0,73,0.00,,SKC,0.00,VWS V14.01,2013-04-15 06:48:00,
2013-04-15 01:53:00,38.1,29.9,29.64,SSW,199,0.0,0.0,72,0.00,,SKC,0.00,VWS V14.01,2013-04-15 06:53:00,
2013-04-15 01:58:00,37.9,29.7,29.64,SW,222,0.0,0.0,72,0.00,,SKC,0.00,VWS V14.01,2013-04-15 06:58:00,
2013-04-15 02:03:00,37.8,29.6,29.64,SW,225,0.0,0.0,72,0.00,,SKC,0.00,VWS V14.01,2013-04-15 07:03:00,
2013-04-15 02:41:00,37.0,27.8,29.64,SW,236,0.0,0.0,69,0.00,,SKC,0.00,VWS V14.01,2013-04-15 07:41:00,
2013-04-15 02:42:00,37.0,27.8,29.64,WSW,238,0.0,0.0,69,0.00,,SKC,0.00,VWS V14.01,2013-04-15 07:42:00,
2013-04-15 02:46:00,37.0,28.2,29.64,SSW,197,0.0,0.0,70,0.00,,SKC,0.00,VWS V14.01,2013-04-15 07:46:00,
2013-04-15 02:50:00,37.0,28.2,29.64,SW,220,0.0,0.0,70,0.00,,SKC,0.00,VWS V14.01,2013-04-15 07:50:00,
2013-04-15 02:55:00,37.2,27.6,29.64,West,275,0.0,0.0,68,0.00,,SKC,0.00,VWS V14.01,2013-04-15 07:55:00,
2013-04-15 02:57:00,37.4,27.5,29.64,SW,223,0.0,0.0,67,0.00,,SKC,0.00,VWS V14.01,2013-04-15 07:57:00,
2013-04-15 03:03:00,37.4,26.7,29.64,SW,230,0.0,0.0,65,0.00,,SKC,0.00,VWS V14.01,2013-04-15 08:03:00,
2013-04-15 03:07:00,37.4,26.7,29.64,SW,220,0.0,0.0,65,0.00,,SKC,0.00,VWS V14.01,2013-04-15 08:07:00,
2013-04-15 03:13:00,37.2,26.5,29.64,West,276,0.0,0.0,65,0.00,,SKC,0.00,VWS V14.01,2013-04-15 08:13:00,
2013-04-15 03:18:00,37.0,26.4,29.64,WSW,257,0.0,0.0,65,0.00,,SKC,0.00,VWS V14.01,2013-04-15 08:18:00,
2013-04-15 03:23:00,37.2,26.2,29.67,WSW,243,0.0,0.0,64,0.00,,SKC,0.00,VWS V14.01,2013-04-15 08:23:00,
2013-04-15 03:28:00,37.0,26.0,29.67,SW,216,0.0,0.0,64,0.00,,SKC,0.00,VWS V14.01,2013-04-15 08:28:00,
2013-04-15 03:33:00,36.7,25.7,29.67,WSW,239,0.0,0.0,64,0.00,,SKC,0.00,VWS V14.01,2013-04-15 08:33:00,
2013-04-15 03:38:00,36.3,25.3,29.67,SW,221,0.0,0.0,64,0.00,,SKC,0.00,VWS V14.01,2013-04-15 08:38:00,
2013-04-15 03:40:00,36.3,25.7,29.67,SW,219,0.0,0.0,65,0.00,,SKC,0.00,VWS V14.01,2013-04-15 08:40:00,
2013-04-15 03:41:00,36.1,25.5,29.67,SW,227,0.0,0.0,65,0.00,,SKC,0.00,VWS V14.01,2013-04-15 08:41:00,
2013-04-15 03:42:00,36.1,25.5,29.67,West,273,0.0,0.0,65,0.00,,SKC,0.00,VWS V14.01,2013-04-15 08:42:00,
2013-04-15 03:47:00,36.0,25.7,29.67,SW,230,0.0,0.0,66,0.00,,SKC,0.00,VWS V14.01,2013-04-15 08:47:00,
2013-04-15 03:52:00,35.8,25.5,29.64,SSW,201,0.0,0.0,66,0.00,,SKC,0.00,VWS V14.01,2013-04-15 08:52:00,
2013-04-15 03:57:00,35.8,25.9,29.64,SW,219,0.0,0.0,67,0.00,,SKC,0.00,VWS V14.01,2013-04-15 08:57:00,
2013-04-15 04:03:00,36.0,26.4,29.64,West,262,0.0,0.0,68,0.00,,SKC,0.00,VWS V14.01,2013-04-15 09:03:00,
2013-04-15 04:08:00,36.0,26.1,29.67,SSW,211,0.0,0.0,67,0.00,,SKC,0.00,VWS V14.01,2013-04-15 09:08:00,
2013-04-15 04:13:00,35.8,25.9,29.67,SSW,209,0.0,0.0,67,0.00,,SKC,0.00,VWS V14.01,2013-04-15 09:13:00,
2013-04-15 04:19:00,35.8,25.9,29.67,West,261,0.0,0.0,67,0.00,,SKC,0.00,VWS V14.01,2013-04-15 09:19:00,
2013-04-15 04:24:00,35.6,25.4,29.67,SW,218,0.0,0.0,66,0.00,,SKC,0.00,VWS V14.01,2013-04-15 09:24:00,
2013-04-15 04:29:00,35.6,25.0,29.67,SW,229,0.0,0.0,65,0.00,,SKC,0.00,VWS V14.01,2013-04-15 09:29:00,
2013-04-15 04:35:00,35.2,25.0,29.67,SW,235,0.0,0.0,66,0.00,,SKC,0.00,VWS V14.01,2013-04-15 09:35:00,
2013-04-15 04:40:00,35.1,24.9,29.67,SSE,157,0.0,0.0,66,0.00,,SKC,0.00,VWS V14.01,2013-04-15 09:40:00,
2013-04-15 04:46:00,34.9,25.0,29.67,SSW,212,0.0,0.0,67,0.00,,SKC,0.00,VWS V14.01,2013-04-15 09:46:00,
2013-04-15 04:51:00,34.9,25.4,29.67,SW,228,0.0,0.0,68,0.00,,SKC,0.00,VWS V14.01,2013-04-15 09:51:00,
2013-04-15 04:56:00,34.5,25.1,29.67,SSW,199,0.0,0.0,68,0.00,,SKC,0.00,VWS V14.01,2013-04-15 09:56:00,
2013-04-15 05:02:00,34.3,24.9,29.67,South,188,0.0,0.0,68,0.00,,SKC,0.00,VWS V14.01,2013-04-15 10:02:00,
2013-04-15 05:08:00,34.5,25.4,29.67,WSW,238,0.0,0.0,69,0.00,,SKC,0.00,VWS V14.01,2013-04-15 10:08:00,
2013-04-15 05:13:00,34.7,25.6,29.67,SW,222,0.0,0.0,69,0.00,,SKC,0.00,VWS V14.01,2013-04-15 10:13:00,
2013-04-15 05:18:00,34.9,25.4,29.67,SSW,203,0.0,0.0,68,0.00,,SKC,0.00,VWS V14.01,2013-04-15 10:18:00,
2013-04-15 05:23:00,34.9,25.0,29.67,SW,218,0.0,0.0,67,0.00,,SKC,0.00,VWS V14.01,2013-04-15 10:23:00,
2013-04-15 05:28:00,34.9,24.7,29.67,SW,224,0.0,0.0,66,0.00,,SKC,0.00,VWS V14.01,2013-04-15 10:28:00,
2013-04-15 05:34:00,35.1,24.1,29.67,SW,217,0.0,0.0,64,0.00,,SKC,0.00,VWS V14.01,2013-04-15 10:34:00,
2013-04-15 05:39:00,35.4,23.7,29.67,SW,220,0.0,0.0,62,0.00,,SKC,0.00,VWS V14.01,2013-04-15 10:39:00,
2013-04-15 05:45:00,34.9,23.2,29.67,SW,230,0.0,0.0,62,0.00,,SKC,0.00,VWS V14.01,2013-04-15 10:45:00,
2013-04-15 05:50:00,35.1,23.4,29.70,SW,224,0.0,0.0,62,0.00,,SKC,0.00,VWS V14.01,2013-04-15 10:50:00,
2013-04-15 05:56:00,35.1,23.4,29.70,WSW,237,0.0,0.0,62,0.00,,SKC,0.00,VWS V14.01,2013-04-15 10:56:00,
2013-04-15 06:02:00,35.1,23.4,29.70,WSW,241,0.0,0.0,62,0.00,,SKC,0.00,VWS V14.01,2013-04-15 11:02:00,
2013-04-15 06:07:00,34.9,23.2,29.70,West,277,0.0,0.0,62,0.00,,SKC,0.00,VWS V14.01,2013-04-15 11:07:00,
2013-04-15 06:12:00,34.7,23.4,29.70,SW,230,0.0,0.0,63,0.00,,SKC,0.00,VWS V14.01,2013-04-15 11:12:00,
2013-04-15 06:17:00,34.3,23.1,29.70,WSW,247,0.0,0.0,63,0.00,,SKC,0.00,VWS V14.01,2013-04-15 11:17:00,
2013-04-15 06:22:00,34.3,23.4,29.70,WSW,238,0.0,0.0,64,0.00,,SKC,0.00,VWS V14.01,2013-04-15 11:22:00,
2013-04-15 06:27:00,34.5,24.0,29.70,SSW,208,0.0,0.0,65,0.00,,SKC,0.00,VWS V14.01,2013-04-15 11:27:00,
2013-04-15 06:32:00,34.5,24.0,29.70,WSW,241,0.0,0.0,65,0.00,,SKC,0.00,VWS V14.01,2013-04-15 11:32:00,
2013-04-15 06:37:00,34.5,24.4,29.70,WSW,249,0.0,0.0,66,0.00,,SKC,0.00,VWS V14.01,2013-04-15 11:37:00,
2013-04-15 06:42:00,34.5,24.4,29.70,SW,215,0.0,0.0,66,0.00,,SKC,0.00,VWS V14.01,2013-04-15 11:42:00,
2013-04-15 06:47:00,34.2,24.0,29.70,SW,232,0.0,0.0,66,0.00,,SKC,0.00,VWS V14.01,2013-04-15 11:47:00,
2013-04-15 06:52:00,34.0,24.2,29.70,WSW,248,0.0,0.0,67,0.00,,SKC,0.00,VWS V14.01,2013-04-15 11:52:00,
2013-04-15 06:57:00,34.3,23.8,29.70,WSW,255,0.0,0.0,65,0.00,,SKC,0.00,VWS V14.01,2013-04-15 11:57:00,
2013-04-15 07:02:00,34.3,21.9,29.70,SSW,207,0.0,7.2,60,0.00,,SKC,0.00,VWS V14.01,2013-04-15 12:02:00,
2013-04-15 07:08:00,34.3,20.7,29.70,West,265,0.0,0.0,57,0.00,,SKC,0.00,VWS V14.01,2013-04-15 12:08:00,
2013-04-15 07:14:00,34.3,20.3,29.70,SW,236,0.0,0.0,56,0.00,,SKC,0.00,VWS V14.01,2013-04-15 12:14:00,
2013-04-15 07:19:00,36.0,21.0,29.73,SW,225,0.0,0.0,54,0.00,,SKC,0.00,VWS V14.01,2013-04-15 12:19:00,
2013-04-15 07:24:00,39.4,21.8,29.73,West,275,0.0,0.0,49,0.00,,SKC,0.00,VWS V14.01,2013-04-15 12:24:00,
2013-04-15 07:29:00,42.3,23.0,29.73,SW,219,0.0,0.0,46,0.00,,SKC,0.00,VWS V14.01,2013-04-15 12:29:00,
2013-04-15 07:34:00,43.2,22.2,29.73,SW,228,0.0,0.0,43,0.00,,SKC,0.00,VWS V14.01,2013-04-15 12:34:00,
2013-04-15 07:40:00,39.7,20.1,29.73,SW,214,0.0,0.0,45,0.00,,SKC,0.00,VWS V14.01,2013-04-15 12:40:00,
2013-04-15 07:45:00,37.2,20.3,29.73,SW,219,0.0,4.0,50,0.00,,SKC,0.00,VWS V14.01,2013-04-15 12:45:00,
2013-04-15 07:51:00,36.1,21.1,29.73,WSW,244,0.0,0.0,54,0.00,,SKC,0.00,VWS V14.01,2013-04-15 12:51:00,
2013-04-15 07:57:00,35.8,20.8,29.73,South,188,0.0,0.0,54,0.00,,SKC,0.00,VWS V14.01,2013-04-15 12:57:00,
2013-04-15 08:02:00,35.6,19.7,29.73,SSE,166,0.0,0.0,52,0.00,,SKC,0.00,VWS V14.01,2013-04-15 13:02:00,
2013-04-15 08:08:00,35.6,18.8,29.73,SSW,197,0.0,0.0,50,0.00,,SKC,0.00,VWS V14.01,2013-04-15 13:08:00,
2013-04-15 08:13:00,35.6,18.8,29.73,WSW,249,0.0,0.0,50,0.00,,SKC,0.00,VWS V14.01,2013-04-15 13:13:00,
2013-04-15 08:18:00,35.4,18.2,29.73,West,265,0.0,0.0,49,0.00,,SKC,0.00,VWS V14.01,2013-04-15 13:18:00,
2013-04-15 08:23:00,35.8,19.4,29.76,West,260,0.0,0.0,51,0.00,,SKC,0.00,VWS V14.01,2013-04-15 13:23:00,
2013-04-15 08:28:00,36.0,19.6,29.76,SW,225,0.0,0.0,51,0.00,,SKC,0.00,VWS V14.01,2013-04-15 13:28:00,
2013-04-15 08:33:00,36.1,19.8,29.76,SW,229,0.0,0.0,51,0.00,,SKC,0.00,VWS V14.01,2013-04-15 13:33:00,
2013-04-15 08:38:00,36.1,19.8,29.76,SW,225,0.0,0.0,51,0.00,,SKC,0.00,VWS V14.01,2013-04-15 13:38:00,
2013-04-15 08:43:00,36.3,19.5,29.76,SW,229,0.0,0.0,50,0.00,,SKC,0.00,VWS V14.01,2013-04-15 13:43:00,
2013-04-15 08:48:00,35.8,18.0,29.76,West,266,0.0,0.0,48,0.00,,SKC,0.00,VWS V14.01,2013-04-15 13:48:00,
2013-04-15 08:53:00,36.1,19.3,29.76,West,260,0.0,0.0,50,0.00,,SKC,0.00,VWS V14.01,2013-04-15 13:53:00,
2013-04-15 08:58:00,36.3,19.0,29.76,WSW,243,0.0,0.0,49,0.00,,SKC,0.00,VWS V14.01,2013-04-15 13:58:00,
2013-04-15 09:05:00,36.5,20.1,29.76,WSW,239,0.0,0.0,51,0.00,,SKC,0.00,VWS V14.01,2013-04-15 14:05:00,
2013-04-15 09:10:00,36.7,19.8,29.76,WSW,242,0.0,0.0,50,0.00,,SKC,0.00,VWS V14.01,2013-04-15 14:10:00,
2013-04-15 09:15:00,37.0,20.6,29.76,SW,219,0.0,4.0,51,0.00,,SKC,0.00,VWS V14.01,2013-04-15 14:15:00,
2013-04-15 09:20:00,36.9,19.5,29.76,SSW,197,0.0,0.0,49,0.00,,SKC,0.00,VWS V14.01,2013-04-15 14:20:00,
2013-04-15 09:25:00,36.7,19.3,29.76,SSW,202,0.0,0.0,49,0.00,,SKC,0.00,VWS V14.01,2013-04-15 14:25:00,
2013-04-15 09:30:00,37.0,20.1,29.76,SW,233,4.0,4.0,50,0.00,,SKC,0.00,VWS V14.01,2013-04-15 14:30:00,
2013-04-15 09:35:00,36.9,20.0,29.76,SSW,198,0.0,0.0,50,0.00,,SKC,0.00,VWS V14.01,2013-04-15 14:35:00,
2013-04-15 09:41:00,36.7,19.8,29.76,SW,223,0.0,0.0,50,0.00,,SKC,0.00,VWS V14.01,2013-04-15 14:41:00,
2013-04-15 09:46:00,37.8,21.3,29.76,SW,214,0.0,4.0,51,0.00,,SKC,0.00,VWS V14.01,2013-04-15 14:46:00,
2013-04-15 09:51:00,38.1,21.1,29.76,NW,308,0.0,0.0,50,0.00,,SKC,0.00,VWS V14.01,2013-04-15 14:51:00,
2013-04-15 09:57:00,37.4,20.0,29.76,SW,217,15.7,23.8,49,0.00,,SKC,0.00,VWS V14.01,2013-04-15 14:57:00,
2013-04-15 10:03:00,37.2,19.4,29.76,WSW,255,0.0,4.0,48,0.00,,SKC,0.00,VWS V14.01,2013-04-15 15:03:00,
2013-04-15 10:09:00,37.2,19.4,29.76,WSW,255,0.0,0.0,48,0.00,,SKC,0.00,VWS V14.01,2013-04-15 15:09:00,
2013-04-15 10:14:00,37.9,21.0,29.76,WSW,245,17.3,17.3,50,0.00,,SKC,0.00,VWS V14.01,2013-04-15 15:14:00,
2013-04-15 10:19:00,38.3,21.3,29.76,WSW,250,0.0,0.0,50,0.00,,SKC,0.00,VWS V14.01,2013-04-15 15:19:00,
2013-04-15 10:24:00,38.7,21.2,29.79,WSW,240,0.0,0.0,49,0.00,,SKC,0.00,VWS V14.01,2013-04-15 15:24:00,
2013-04-15 10:29:00,39.0,21.5,29.79,WSW,250,0.0,0.0,49,0.00,,SKC,0.00,VWS V14.01,2013-04-15 15:29:00,
2013-04-15 10:34:00,38.7,21.6,29.79,WSW,242,0.0,0.0,50,0.00,,SKC,0.00,VWS V14.01,2013-04-15 15:34:00,
2013-04-15 10:39:00,38.7,21.6,29.79,WNW,295,0.0,0.0,50,0.00,,SKC,0.00,VWS V14.01,2013-04-15 15:39:00,
2013-04-15 10:45:00,38.5,21.9,29.79,SSW,211,14.9,19.7,51,0.00,,SKC,0.00,VWS V14.01,2013-04-15 15:45:00,
2013-04-15 10:50:00,38.3,21.8,29.82,West,265,14.5,15.7,51,0.00,,SKC,0.00,VWS V14.01,2013-04-15 15:50:00,
2013-04-15 10:56:00,38.7,21.6,29.82,SSE,165,0.0,4.0,50,0.00,,SKC,0.00,VWS V14.01,2013-04-15 15:56:00,
2013-04-15 11:04:00,38.1,20.2,29.82,SW,223,0.0,0.0,48,0.00,,SKC,0.00,VWS V14.01,2013-04-15 16:04:00,
2013-04-15 11:09:00,39.4,21.8,29.82,SW,225,0.0,4.8,49,0.00,,SKC,0.00,VWS V14.01,2013-04-15 16:09:00,
2013-04-15 11:14:00,37.9,19.5,29.82,WSW,258,0.0,0.0,47,0.00,,SKC,0.00,VWS V14.01,2013-04-15 16:14:00,
2013-04-15 11:19:00,37.4,20.0,29.82,SSW,198,4.8,14.9,49,0.00,,SKC,0.00,VWS V14.01,2013-04-15 16:19:00,
2013-04-15 11:24:00,36.9,20.0,29.82,SW,226,0.0,0.0,50,0.00,,SKC,0.00,VWS V14.01,2013-04-15 16:24:00,
2013-04-15 11:29:00,37.2,20.8,29.82,WSW,239,14.9,14.9,51,0.00,,SKC,0.00,VWS V14.01,2013-04-15 16:29:00,
2013-04-15 11:34:00,36.7,19.3,29.85,West,263,0.0,0.0,49,0.00,,SKC,0.00,VWS V14.01,2013-04-15 16:34:00,
2013-04-15 11:40:00,36.7,20.3,29.85,West,271,0.0,0.0,51,0.00,,SKC,0.00,VWS V14.01,2013-04-15 16:40:00,
2013-04-15 11:46:00,37.8,20.8,29.85,WSW,257,0.0,0.0,50,0.00,,SKC,0.00,VWS V14.01,2013-04-15 16:46:00,
2013-04-15 11:52:00,38.7,21.2,29.85,WSW,250,0.0,0.0,49,0.00,,SKC,0.00,VWS V14.01,2013-04-15 16:52:00,
2013-04-15 11:57:00,39.2,21.7,29.85,WSW,249,4.0,4.0,49,0.00,,SKC,0.00,VWS V14.01,2013-04-15 16:57:00,
2013-04-15 12:03:00,39.0,20.5,29.85,West,267,0.0,0.0,47,0.00,,SKC,0.00,VWS V14.01,2013-04-15 17:03:00,
2013-04-15 12:09:00,39.2,21.2,29.85,SSW,209,25.4,25.4,48,0.00,,SKC,0.00,VWS V14.01,2013-04-15 17:09:00,
2013-04-15 12:14:00,40.3,21.7,29.85,SSW,202,0.0,12.9,47,0.00,,SKC,0.00,VWS V14.01,2013-04-15 17:14:00,
2013-04-15 12:19:00,41.2,21.5,29.85,SW,231,15.7,18.1,45,0.00,,SKC,0.00,VWS V14.01,2013-04-15 17:19:00,
2013-04-15 12:21:00,41.0,20.8,29.85,WSW,246,0.0,4.0,44,0.00,,SKC,0.00,VWS V14.01,2013-04-15 17:21:00,
2013-04-15 12:22:00,41.5,21.8,29.85,WSW,249,0.0,4.0,45,0.00,,SKC,0.00,VWS V14.01,2013-04-15 17:22:00,
2013-04-15 12:26:00,41.9,22.6,29.85,WSW,246,0.0,0.0,46,0.00,,SKC,0.00,VWS V14.01,2013-04-15 17:26:00,
2013-04-15 12:30:00,40.5,20.3,29.85,WSW,248,0.0,0.0,44,0.00,,SKC,0.00,VWS V14.01,2013-04-15 17:30:00,
2013-04-15 12:36:00,41.0,22.3,29.85,WSW,240,0.0,0.0,47,0.00,,SKC,0.00,VWS V14.01,2013-04-15 17:36:00,
2013-04-15 12:41:00,40.3,20.6,29.85,West,273,0.0,0.0,45,0.00,,SKC,0.00,VWS V14.01,2013-04-15 17:41:00,
2013-04-15 12:46:00,41.2,21.5,29.85,SW,234,0.0,0.0,45,0.00,,SKC,0.00,VWS V14.01,2013-04-15 17:46:00,
2013-04-15 12:51:00,41.7,22.0,29.85,WSW,246,18.9,18.9,45,0.00,,SKC,0.00,VWS V14.01,2013-04-15 17:51:00,
2013-04-15 12:57:00,40.5,20.8,29.85,West,266,0.0,0.0,45,0.00,,SKC,0.00,VWS V14.01,2013-04-15 17:57:00,
2013-04-15 13:03:00,40.6,21.0,29.85,WSW,249,0.0,0.0,45,0.00,,SKC,0.00,VWS V14.01,2013-04-15 18:03:00,
2013-04-15 13:10:00,41.0,21.3,29.85,WSW,254,0.0,0.0,45,0.00,,SKC,0.00,VWS V14.01,2013-04-15 18:10:00,
2013-04-15 13:15:00,41.4,21.1,29.85,West,276,0.0,0.0,44,0.00,,SKC,0.00,VWS V14.01,2013-04-15 18:15:00,
2013-04-15 13:20:00,42.3,22.5,29.85,SW,228,14.9,27.8,45,0.00,,SKC,0.00,VWS V14.01,2013-04-15 18:20:00,
2013-04-15 13:25:00,41.9,21.6,29.85,NW,317,0.0,11.3,44,0.00,,SKC,0.00,VWS V14.01,2013-04-15 18:25:00,
2013-04-15 13:29:00,42.1,21.8,29.85,WSW,239,0.0,0.0,44,0.00,,SKC,0.00,VWS V14.01,2013-04-15 18:29:00,
2013-04-15 13:30:00,42.1,21.8,29.85,SW,235,0.0,0.0,44,0.00,,SKC,0.00,VWS V14.01,2013-04-15 18:30:00,
2013-04-15 13:31:00,42.8,22.4,29.85,West,265,0.0,0.0,44,0.00,,SKC,0.00,VWS V14.01,2013-04-15 18:31:00,
2013-04-15 13:32:00,42.6,22.8,29.85,WNW,284,0.0,0.0,45,0.00,,SKC,0.00,VWS V14.01,2013-04-15 18:32:00,
2013-04-15 13:33:00,42.3,21.4,29.85,West,269,0.0,0.0,43,0.00,,SKC,0.00,VWS V14.01,2013-04-15 18:33:00,
2013-04-15 13:38:00,42.4,22.6,29.88,West,271,0.0,0.0,45,0.00,,SKC,0.00,VWS V14.01,2013-04-15 18:38:00,
2013-04-15 13:44:00,43.5,23.1,29.88,WSW,242,0.0,0.0,44,0.00,,SKC,0.00,VWS V14.01,2013-04-15 18:44:00,
2013-04-15 13:49:00,43.2,22.2,29.88,West,266,0.0,0.0,43,0.00,,SKC,0.00,VWS V14.01,2013-04-15 18:49:00,
2013-04-15 13:54:00,42.4,21.5,29.88,SW,219,0.0,0.0,43,0.00,,SKC,0.00,VWS V14.01,2013-04-15 18:54:00,
2013-04-15 14:01:00,42.8,21.9,29.88,West,272,14.5,27.8,43,0.00,,SKC,0.00,VWS V14.01,2013-04-15 19:01:00,
2013-04-15 14:06:00,42.6,22.2,29.88,West,277,0.0,0.0,44,0.00,,SKC,0.00,VWS V14.01,2013-04-15 19:06:00,
2013-04-15 14:11:00,43.7,23.2,29.88,SW,214,4.8,8.9,44,0.00,,SKC,0.00,VWS V14.01,2013-04-15 19:11:00,
2013-04-15 14:17:00,44.1,22.5,29.88,WSW,257,0.0,0.0,42,0.00,,SKC,0.00,VWS V14.01,2013-04-15 19:17:00,
2013-04-15 14:22:00,43.7,22.1,29.88,WSW,243,0.0,0.0,42,0.00,,SKC,0.00,VWS V14.01,2013-04-15 19:22:00,
2013-04-15 14:27:00,44.1,22.5,29.88,WSW,248,0.0,0.0,42,0.00,,SKC,0.00,VWS V14.01,2013-04-15 19:27:00,
2013-04-15 14:32:00,44.8,23.1,29.88,SW,233,0.0,0.0,42,0.00,,SKC,0.00,VWS V14.01,2013-04-15 19:32:00,
2013-04-15 14:37:00,43.5,22.0,29.88,West,279,18.9,18.9,42,0.00,,SKC,0.00,VWS V14.01,2013-04-15 19:37:00,
2013-04-15 14:42:00,43.3,21.8,29.88,WSW,254,0.0,0.0,42,0.00,,SKC,0.00,VWS V14.01,2013-04-15 19:42:00,
2013-04-15 14:48:00,43.7,22.7,29.88,WSW,254,0.0,0.0,43,0.00,,SKC,0.00,VWS V14.01,2013-04-15 19:48:00,
2013-04-15 14:55:00,43.9,22.3,29.88,West,263,0.0,10.5,42,0.00,,SKC,0.00,VWS V14.01,2013-04-15 19:55:00,
2013-04-15 14:57:00,44.2,22.6,29.88,WSW,237,0.0,0.0,42,0.00,,SKC,0.00,VWS V14.01,2013-04-15 19:57:00,
2013-04-15 14:58:00,44.8,23.1,29.88,WSW,256,0.0,0.0,42,0.00,,SKC,0.00,VWS V14.01,2013-04-15 19:58:00,
2013-04-15 14:59:00,44.2,22.6,29.88,WNW,288,0.0,0.0,42,0.00,,SKC,0.00,VWS V14.01,2013-04-15 19:59:00,
2013-04-15 15:02:00,44.6,22.4,29.88,WNW,302,0.0,0.0,41,0.00,,SKC,0.00,VWS V14.01,2013-04-15 20:02:00,
2013-04-15 15:03:00,43.9,21.7,29.88,WSW,248,0.0,0.0,41,0.00,,SKC,0.00,VWS V14.01,2013-04-15 20:03:00,
2013-04-15 15:05:00,44.2,22.6,29.88,WNW,286,0.0,0.0,42,0.00,,SKC,0.00,VWS V14.01,2013-04-15 20:05:00,
2013-04-15 15:09:00,44.8,23.1,29.88,West,260,0.0,0.0,42,0.00,,SKC,0.00,VWS V14.01,2013-04-15 20:09:00,
2013-04-15 15:14:00,44.1,22.5,29.88,WSW,246,0.0,11.3,42,0.00,,SKC,0.00,VWS V14.01,2013-04-15 20:14:00,
2013-04-15 15:19:00,43.5,22.0,29.88,WSW,237,0.0,0.0,42,0.00,,SKC,0.00,VWS V14.01,2013-04-15 20:19:00,
2013-04-15 15:20:00,44.1,22.5,29.88,WSW,256,0.0,0.0,42,0.00,,SKC,0.00,VWS V14.01,2013-04-15 20:20:00,
2013-04-15 15:25:00,43.7,23.2,29.88,SW,228,10.5,11.3,44,0.00,,SKC,0.00,VWS V14.01,2013-04-15 20:25:00,
2013-04-15 15:30:00,43.5,22.0,29.88,WSW,258,0.0,0.0,42,0.00,,SKC,0.00,VWS V14.01,2013-04-15 20:30:00,
2013-04-15 15:35:00,43.9,22.3,29.88,WSW,258,0.0,0.0,42,0.00,,SKC,0.00,VWS V14.01,2013-04-15 20:35:00,
2013-04-15 15:40:00,43.5,22.5,29.88,WSW,258,0.0,4.0,43,0.00,,SKC,0.00,VWS V14.01,2013-04-15 20:40:00,
2013-04-15 15:46:00,43.7,22.1,29.88,WSW,255,0.0,0.0,42,0.00,,SKC,0.00,VWS V14.01,2013-04-15 20:46:00,
2013-04-15 15:51:00,43.7,22.7,29.88,West,267,0.0,4.0,43,0.00,,SKC,0.00,VWS V14.01,2013-04-15 20:51:00,
2013-04-15 15:56:00,44.6,22.9,29.88,SW,226,0.0,0.0,42,0.00,,SKC,0.00,VWS V14.01,2013-04-15 20:56:00,
2013-04-15 16:02:00,45.0,22.7,29.88,West,280,0.0,0.0,41,0.00,,SKC,0.00,VWS V14.01,2013-04-15 21:02:00,
2013-04-15 16:07:00,45.0,23.3,29.88,WNW,295,0.0,0.0,42,0.00,,SKC,0.00,VWS V14.01,2013-04-15 21:07:00,
2013-04-15 16:13:00,44.8,22.5,29.88,WNW,287,0.0,0.0,41,0.00,,SKC,0.00,VWS V14.01,2013-04-15 21:13:00,
2013-04-15 16:18:00,44.6,22.4,29.88,WSW,257,0.0,0.0,41,0.00,,SKC,0.00,VWS V14.01,2013-04-15 21:18:00,
2013-04-15 16:23:00,44.6,21.8,29.88,West,266,0.0,0.0,40,0.00,,SKC,0.00,VWS V14.01,2013-04-15 21:23:00,
2013-04-15 16:28:00,44.6,22.4,29.88,West,276,0.0,0.0,41,0.00,,SKC,0.00,VWS V14.01,2013-04-15 21:28:00,
2013-04-15 16:33:00,44.8,22.5,29.88,NW,305,0.0,0.0,41,0.00,,SKC,0.00,VWS V14.01,2013-04-15 21:33:00,
2013-04-15 16:38:00,44.1,21.9,29.91,West,265,0.0,0.0,41,0.00,,SKC,0.00,VWS V14.01,2013-04-15 21:38:00,
2013-04-15 16:43:00,43.0,21.5,29.91,WNW,291,0.0,0.0,42,0.00,,SKC,0.00,VWS V14.01,2013-04-15 21:43:00,
2013-04-15 16:48:00,43.0,21.5,29.91,North,7,4.8,15.7,42,0.00,,SKC,0.00,VWS V14.01,2013-04-15 21:48:00,
2013-04-15 16:54:00,43.2,22.2,29.91,WSW,250,0.0,0.0,43,0.00,,SKC,0.00,VWS V14.01,2013-04-15 21:54:00,
2013-04-15 16:59:00,43.9,23.4,29.91,West,260,0.0,0.0,44,0.00,,SKC,0.00,VWS V14.01,2013-04-15 21:59:00,
2013-04-15 17:04:00,43.9,22.3,29.91,WSW,253,0.0,0.0,42,0.00,,SKC,0.00,VWS V14.01,2013-04-15 22:04:00,
2013-04-15 17:09:00,43.5,22.0,29.91,West,281,0.0,0.0,42,0.00,,SKC,0.00,VWS V14.01,2013-04-15 22:09:00,
2013-04-15 17:14:00,43.2,21.6,29.91,West,281,0.0,0.0,42,0.00,,SKC,0.00,VWS V14.01,2013-04-15 22:14:00,
2013-04-15 17:19:00,43.0,21.5,29.91,WNW,282,0.0,0.0,42,0.00,,SKC,0.00,VWS V14.01,2013-04-15 22:19:00,
2013-04-15 17:24:00,42.4,21.5,29.91,WNW,290,0.0,0.0,43,0.00,,SKC,0.00,VWS V14.01,2013-04-15 22:24:00,
2013-04-15 17:29:00,42.6,22.2,29.91,WSW,249,0.0,0.0,44,0.00,,SKC,0.00,VWS V14.01,2013-04-15 22:29:00,
2013-04-15 17:34:00,43.0,21.5,29.91,WNW,300,0.0,0.0,42,0.00,,SKC,0.00,VWS V14.01,2013-04-15 22:34:00,
2013-04-15 17:39:00,42.3,21.4,29.91,WNW,286,8.9,8.9,43,0.00,,SKC,0.00,VWS V14.01,2013-04-15 22:39:00,
2013-04-15 17:44:00,42.6,21.1,29.91,WSW,254,0.0,0.0,42,0.00,,SKC,0.00,VWS V14.01,2013-04-15 22:44:00,
2013-04-15 17:49:00,43.3,21.8,29.91,WNW,296,0.0,6.4,42,0.00,,SKC,0.00,VWS V14.01,2013-04-15 22:49:00,
2013-04-15 17:54:00,43.0,21.5,29.91,NW,312,0.0,6.4,42,0.00,,SKC,0.00,VWS V14.01,2013-04-15 22:54:00,
2013-04-15 17:59:00,43.0,20.9,29.91,WSW,240,0.0,0.0,41,0.00,,SKC,0.00,VWS V14.01,2013-04-15 22:59:00,
2013-04-15 18:04:00,42.6,20.6,29.91,WNW,301,0.0,0.0,41,0.00,,SKC,0.00,VWS V14.01,2013-04-15 23:04:00,
2013-04-15 18:09:00,41.4,20.0,29.91,WNW,292,0.0,0.0,42,0.00,,SKC,0.00,VWS V14.01,2013-04-15 23:09:00,
2013-04-15 18:14:00,42.3,20.8,29.91,NW,306,0.0,0.0,42,0.00,,SKC,0.00,VWS V14.01,2013-04-15 23:14:00,
2013-04-15 18:19:00,41.5,20.7,29.91,WNW,290,9.7,15.7,43,0.00,,SKC,0.00,VWS V14.01,2013-04-15 23:19:00,
2013-04-15 18:24:00,41.9,21.0,29.91,WNW,286,0.0,0.0,43,0.00,,SKC,0.00,VWS V14.01,2013-04-15 23:24:00,
2013-04-15 18:29:00,41.5,20.7,29.91,WSW,248,0.0,0.0,43,0.00,,SKC,0.00,VWS V14.01,2013-04-15 23:29:00,
2013-04-15 18:34:00,41.4,21.1,29.91,West,262,0.0,0.0,44,0.00,,SKC,0.00,VWS V14.01,2013-04-15 23:34:00,
2013-04-15 18:39:00,42.1,21.8,29.91,WNW,297,0.0,0.0,44,0.00,,SKC,0.00,VWS V14.01,2013-04-15 23:39:00,
2013-04-15 18:44:00,41.4,21.1,29.91,West,281,0.0,0.0,44,0.00,,SKC,0.00,VWS V14.01,2013-04-15 23:44:00,
2013-04-15 18:49:00,41.2,20.4,29.91,WNW,292,0.0,0.0,43,0.00,,SKC,0.00,VWS V14.01,2013-04-15 23:49:00,
2013-04-15 18:54:00,40.8,20.6,29.91,North,357,0.0,0.0,44,0.00,,SKC,0.00,VWS V14.01,2013-04-15 23:54:00,
2013-04-15 18:59:00,40.6,21.0,29.91,NNW,342,0.0,0.0,45,0.00,,SKC,0.00,VWS V14.01,2013-04-15 23:59:00,
2013-04-15 19:05:00,40.5,20.8,29.93,WNW,299,0.0,0.0,45,0.00,,SKC,0.00,VWS V14.01,2013-04-16 00:05:00,
2013-04-15 19:10:00,39.9,20.3,29.93,NW,312,0.0,0.0,45,0.00,,SKC,0.00,VWS V14.01,2013-04-16 00:10:00,
2013-04-15 19:15:00,39.6,20.0,29.93,WNW,303,7.2,9.7,45,0.00,,SKC,0.00,VWS V14.01,2013-04-16 00:15:00,
2013-04-15 19:20:00,39.6,21.0,29.93,West,271,0.0,0.0,47,0.00,,SKC,0.00,VWS V14.01,2013-04-16 00:20:00,
2013-04-15 19:25:00,39.6,21.0,29.93,West,269,0.0,0.0,47,0.00,,SKC,0.00,VWS V14.01,2013-04-16 00:25:00,
2013-04-15 19:30:00,39.2,20.7,29.93,West,259,0.0,0.0,47,0.00,,SKC,0.00,VWS V14.01,2013-04-16 00:30:00,
2013-04-15 19:35:00,38.8,20.4,29.93,WNW,297,0.0,0.0,47,0.00,,SKC,0.00,VWS V14.01,2013-04-16 00:35:00,
2013-04-15 19:40:00,38.3,19.9,29.93,NW,318,0.0,0.0,47,0.00,,SKC,0.00,VWS V14.01,2013-04-16 00:40:00,
2013-04-15 19:45:00,37.9,20.0,29.93,WNW,297,0.0,0.0,48,0.00,,SKC,0.00,VWS V14.01,2013-04-16 00:45:00,
2013-04-15 19:50:00,37.8,20.3,29.93,NW,310,0.0,0.0,49,0.00,,SKC,0.00,VWS V14.01,2013-04-16 00:50:00,
2013-04-15 19:55:00,37.6,20.2,29.93,WNW,282,0.0,0.0,49,0.00,,SKC,0.00,VWS V14.01,2013-04-16 00:55:00,
2013-04-15 20:00:00,37.6,20.6,29.93,WNW,291,0.0,0.0,50,0.00,,SKC,0.00,VWS V14.01,2013-04-16 01:00:00,
2013-04-15 20:05:00,37.6,21.1,29.93,NW,305,0.0,0.0,51,0.00,,SKC,0.00,VWS V14.01,2013-04-16 01:05:00,
2013-04-15 20:10:00,37.6,21.1,29.93,NW,308,0.0,0.0,51,0.00,,SKC,0.00,VWS V14.01,2013-04-16 01:10:00,
2013-04-15 20:15:00,37.6,21.6,29.93,NW,311,0.0,0.0,52,0.00,,SKC,0.00,VWS V14.01,2013-04-16 01:15:00,
2013-04-15 20:20:00,37.2,20.8,29.96,NW,306,0.0,0.0,51,0.00,,SKC,0.00,VWS V14.01,2013-04-16 01:20:00,
2013-04-15 20:25:00,36.9,20.4,29.96,West,277,0.0,0.0,51,0.00,,SKC,0.00,VWS V14.01,2013-04-16 01:25:00,
2013-04-15 20:30:00,36.3,19.9,29.96,WNW,302,0.0,8.9,51,0.00,,SKC,0.00,VWS V14.01,2013-04-16 01:30:00,
2013-04-15 20:35:00,36.1,19.8,29.96,NW,317,0.0,0.0,51,0.00,,SKC,0.00,VWS V14.01,2013-04-16 01:35:00,
2013-04-15 20:40:00,36.1,20.2,29.96,WNW,293,0.0,0.0,52,0.00,,SKC,0.00,VWS V14.01,2013-04-16 01:40:00,
2013-04-15 20:45:00,35.8,19.9,29.96,WNW,289,0.0,0.0,52,0.00,,SKC,0.00,VWS V14.01,2013-04-16 01:45:00,
2013-04-15 20:50:00,35.8,19.9,29.96,WNW,293,0.0,0.0,52,0.00,,SKC,0.00,VWS V14.01,2013-04-16 01:50:00,
2013-04-15 20:55:00,35.8,19.9,29.96,NW,326,0.0,0.0,52,0.00,,SKC,0.00,VWS V14.01,2013-04-16 01:55:00,
2013-04-15 21:00:00,35.8,19.4,29.96,WNW,298,0.0,0.0,51,0.00,,SKC,0.00,VWS V14.01,2013-04-16 02:00:00,
2013-04-15 21:05:00,35.6,19.7,29.96,NW,317,0.0,0.0,52,0.00,,SKC,0.00,VWS V14.01,2013-04-16 02:05:00,
2013-04-15 21:10:00,35.6,19.7,29.96,NW,304,0.0,0.0,52,0.00,,SKC,0.00,VWS V14.01,2013-04-16 02:10:00,
2013-04-15 21:15:00,35.4,19.6,29.96,WNW,290,0.0,0.0,52,0.00,,SKC,0.00,VWS V14.01,2013-04-16 02:15:00,
2013-04-15 21:20:00,35.6,19.7,29.96,WNW,294,0.0,0.0,52,0.00,,SKC,0.00,VWS V14.01,2013-04-16 02:20:00,
2013-04-15 21:25:00,35.4,19.6,29.96,West,280,0.0,0.0,52,0.00,,SKC,0.00,VWS V14.01,2013-04-16 02:25:00,
2013-04-15 21:30:00,35.1,19.7,29.96,WNW,300,0.0,0.0,53,0.00,,SKC,0.00,VWS V14.01,2013-04-16 02:30:00,
2013-04-15 21:35:00,35.1,19.7,29.96,WNW,299,0.0,0.0,53,0.00,,SKC,0.00,VWS V14.01,2013-04-16 02:35:00,
2013-04-15 21:41:00,34.9,19.9,29.96,NW,309,0.0,0.0,54,0.00,,SKC,0.00,VWS V14.01,2013-04-16 02:41:00,
2013-04-15 21:46:00,34.7,20.2,29.96,NW,310,0.0,0.0,55,0.00,,SKC,0.00,VWS V14.01,2013-04-16 02:46:00,
2013-04-15 21:51:00,34.9,20.4,29.99,West,271,0.0,0.0,55,0.00,,SKC,0.00,VWS V14.01,2013-04-16 02:51:00,
2013-04-15 21:56:00,34.9,19.9,29.99,WNW,296,0.0,0.0,54,0.00,,SKC,0.00,VWS V14.01,2013-04-16 02:56:00,
2013-04-15 22:01:00,34.9,20.4,29.99,West,273,0.0,0.0,55,0.00,,SKC,0.00,VWS V14.01,2013-04-16 03:01:00,
2013-04-15 22:06:00,34.9,20.4,29.99,WNW,299,0.0,0.0,55,0.00,,SKC,0.00,VWS V14.01,2013-04-16 03:06:00,
2013-04-15 22:11:00,34.9,20.4,29.99,WNW,291,0.0,0.0,55,0.00,,SKC,0.00,VWS V14.01,2013-04-16 03:11:00,
2013-04-15 22:16:00,34.9,20.4,29.99,West,263,0.0,0.0,55,0.00,,SKC,0.00,VWS V14.01,2013-04-16 03:16:00,
2013-04-15 22:21:00,34.7,20.6,30.02,West,276,0.0,0.0,56,0.00,,SKC,0.00,VWS V14.01,2013-04-16 03:21:00,
2013-04-15 22:27:00,34.5,20.5,30.02,WNW,284,0.0,0.0,56,0.00,,SKC,0.00,VWS V14.01,2013-04-16 03:27:00,
2013-04-15 22:32:00,34.5,20.9,30.02,NW,305,0.0,0.0,57,0.00,,SKC,0.00,VWS V14.01,2013-04-16 03:32:00,
2013-04-15 22:37:00,34.3,21.1,30.02,NW,314,0.0,0.0,58,0.00,,SKC,0.00,VWS V14.01,2013-04-16 03:37:00,
2013-04-15 22:42:00,34.3,20.7,30.02,West,281,0.0,0.0,57,0.00,,SKC,0.00,VWS V14.01,2013-04-16 03:42:00,
2013-04-15 22:47:00,34.2,20.5,30.02,West,279,0.0,0.0,57,0.00,,SKC,0.00,VWS V14.01,2013-04-16 03:47:00,
2013-04-15 22:53:00,34.0,20.8,30.02,NNW,334,0.0,11.3,58,0.00,,SKC,0.00,VWS V14.01,2013-04-16 03:53:00,
2013-04-15 22:58:00,33.8,20.6,30.02,WNW,283,0.0,0.0,58,0.00,,SKC,0.00,VWS V14.01,2013-04-16 03:58:00,
2013-04-15 23:00:00,33.8,20.6,30.02,NW,312,0.0,0.0,58,0.00,,SKC,0.00,VWS V14.01,2013-04-16 04:00:00,
2013-04-15 23:01:00,33.8,21.0,30.02,WNW,290,0.0,0.0,59,0.00,,SKC,0.00,VWS V14.01,2013-04-16 04:01:00,
2013-04-15 23:03:00,33.8,21.0,30.02,West,281,0.0,0.0,59,0.00,,SKC,0.00,VWS V14.01,2013-04-16 04:03:00,
2013-04-15 23:04:00,33.8,21.0,30.02,West,266,0.0,0.0,59,0.00,,SKC,0.00,VWS V14.01,2013-04-16 04:04:00,
2013-04-15 23:06:00,33.6,20.8,30.02,WNW,290,0.0,0.0,59,0.00,,SKC,0.00,VWS V14.01,2013-04-16 04:06:00,
2013-04-15 23:12:00,33.6,21.2,30.02,West,279,0.0,0.0,60,0.00,,SKC,0.00,VWS V14.01,2013-04-16 04:12:00,
2013-04-15 23:17:00,33.3,20.9,30.02,West,273,0.0,0.0,60,0.00,,SKC,0.00,VWS V14.01,2013-04-16 04:17:00,
2013-04-15 23:22:00,33.1,20.7,30.02,NW,318,0.0,0.0,60,0.00,,SKC,0.00,VWS V14.01,2013-04-16 04:22:00,
2013-04-15 23:28:00,33.1,21.1,30.02,NW,308,0.0,0.0,61,0.00,,SKC,0.00,VWS V14.01,2013-04-16 04:28:00,
2013-04-15 23:34:00,32.7,21.1,29.99,WNW,283,0.0,0.0,62,0.00,,SKC,0.00,VWS V14.01,2013-04-16 04:34:00,
2013-04-15 23:39:00,32.7,21.1,29.99,West,272,0.0,0.0,62,0.00,,SKC,0.00,VWS V14.01,2013-04-16 04:39:00,
2013-04-15 23:44:00,32.7,21.1,29.99,WSW,247,0.0,0.0,62,0.00,,SKC,0.00,VWS V14.01,2013-04-16 04:44:00,
2013-04-15 23:49:00,32.5,21.0,30.02,WNW,288,0.0,0.0,62,0.00,,SKC,0.00,VWS V14.01,2013-04-16 04:49:00,
2013-04-15 23:54:00,32.5,21.0,30.02,WNW,302,0.0,0.0,62,0.00,,SKC,0.00,VWS V14.01,2013-04-16 04:54:00,
2013-04-15 23:59:00,32.5,21.4,30.02,West,277,0.0,0.0,63,0.00,,SKC,0.00,VWS V14.01,2013-04-16 04:59:00,